Gregory, South Dakota
Current Conditions -  °F | °C
As of 2:53 AM on Wednesday 22 Oct 2014 (Local Time) from KICR Reporting Station
Clear Clear  
Wind Chill: 18°   Ceiling: Unl
Heat Index: 18°   Visibility: 10mi
Dew Point: 12°   Wind: 25mph
Humidity: 68%   Direction: 180°S
Pressure: 29.8"   Gusts: 33mph
Location:  43.23°N, 99.43°W
Report Text: KICR 220753Z AUTO 18022G29KT 10SM CLR 18/12 A2980 RMK AO2 PK WND 18029/0740 SLP076 T01830122
Loading
Personal Weather Stations






























Interactive Weather Map
Tropical Storm Tracking
New forecast layout! Learn more

10-Day Weather Forecast

Advertisements
Track Severe Weather on mobile